KLM275 EHAM-OMDB

Flight info

Callsign KLM275
Flight time 7h 0m
Altitude 35000
Route ARNEM L620 HMM DCT NOMKA DCT TABAT DCT ARMUT DCT LAMSI DCT LIDSI DCT RADLY DCT PODET DCT KUSIB DCT IDASI DCT RETRA DCT PINDO/N0488F370 DCT PAXIS Y707 OBRAN L321 REXUM M872 BDB Y214 KODIS/N0485F390 Y214 RAPMA DCT KUVSO DCT KATIT DCT PEKEM M628 RIGIL G783 ELUDA/N0498F350 G783 ASPED Q308 KIPOK Q568 IMPED
Aircraft A35K/H-SDE2E3GHIJ3J4J5LM1ORWXY/LB1D1

Departure

Time 2026-04-17 00:37
Airport Amsterdam Airport Schiphol (EHAM)

Arrival

Time 2026-04-17 07:37
Airport Dubai International Airport (OMDB)
Time Latitude Longitude Altitude Speed Heading
2026-04-16 23:58 52.31267 4.76041 5 ft 0 kts 109°
2026-04-17 00:21 52.31269 4.76032 5 ft 3 kts 107°
2026-04-17 00:22 52.31269 4.75958 7 ft 4 kts 51°
2026-04-17 00:22 52.31252 4.75939 8 ft 3 kts
2026-04-17 00:22 52.31248 4.75938 7 ft 3 kts 357°
2026-04-17 00:23 52.31272 4.75935 6 ft 2 kts 357°
2026-04-17 00:23 52.31274 4.75935 5 ft 0 kts 357°
2026-04-17 00:29 52.31275 4.75935 5 ft 0 kts 357°
2026-04-17 00:30 52.31285 4.75934 5 ft 2 kts 358°
2026-04-17 00:30 52.31308 4.75934 5 ft 4 kts
2026-04-17 00:30 52.31345 4.75931 5 ft 6 kts 356°
2026-04-17 00:30 52.31395 4.75925 5 ft 8 kts 356°
2026-04-17 00:31 52.31439 4.75966 5 ft 7 kts 64°
2026-04-17 00:31 52.31448 4.76058 5 ft 9 kts 85°
2026-04-17 00:31 52.31453 4.76165 5 ft 10 kts 86°
2026-04-17 00:31 52.31457 4.76289 5 ft 12 kts 87°
2026-04-17 00:32 52.31462 4.76428 5 ft 13 kts 86°
2026-04-17 00:32 52.31468 4.76581 5 ft 14 kts 87°
2026-04-17 00:32 52.31473 4.76749 5 ft 15 kts 87°
2026-04-17 00:32 52.31478 4.76930 5 ft 17 kts 87°
2026-04-17 00:33 52.31483 4.77124 5 ft 17 kts 95°
2026-04-17 00:33 52.31418 4.77274 5 ft 15 kts 131°
2026-04-17 00:33 52.31346 4.77412 5 ft 16 kts 130°
2026-04-17 00:33 52.31249 4.77505 5 ft 17 kts 176°
2026-04-17 00:34 52.31130 4.77494 5 ft 18 kts 183°
2026-04-17 00:34 52.31005 4.77483 5 ft 19 kts 182°
2026-04-17 00:34 52.30873 4.77472 5 ft 19 kts 183°
2026-04-17 00:34 52.30788 4.77462 5 ft 12 kts 184°
2026-04-17 00:35 52.30703 4.77454 5 ft 13 kts 182°
2026-04-17 00:35 52.30618 4.77500 5 ft 13 kts 152°
2026-04-17 00:35 52.30531 4.77574 5 ft 15 kts 152°
2026-04-17 00:35 52.30465 4.77631 5 ft 6 kts 152°
2026-04-17 00:36 52.30424 4.77640 5 ft 6 kts 206°
2026-04-17 00:36 52.30391 4.77574 4 ft 9 kts 237°
2026-04-17 00:36 52.30343 4.77451 3 ft 27 kts 238°
2026-04-17 00:36 52.30095 4.76814 4 ft 109 kts 238°
2026-04-17 00:37 52.29551 4.75392 13 ft 186 kts 237°
2026-04-17 00:37 52.28790 4.73471 596 ft 216 kts 233°
2026-04-17 00:37 52.27590 4.71814 1451 ft 239 kts 204°
2026-04-17 00:37 52.25928 4.71561 2802 ft 245 kts 167°
2026-04-17 00:38 52.24426 4.72740 4453 ft 236 kts 150°
2026-04-17 00:38 52.23066 4.74190 5878 ft 232 kts 148°
2026-04-17 00:38 52.21730 4.75655 7019 ft 236 kts 148°
2026-04-17 00:38 52.20522 4.77492 7752 ft 241 kts 129°
2026-04-17 00:39 52.19576 4.79874 8107 ft 259 kts 123°
2026-04-17 00:39 52.18649 4.82529 8389 ft 277 kts 122°
2026-04-17 00:39 52.17789 4.85423 8871 ft 289 kts 111°
2026-04-17 00:39 52.17535 4.88662 9475 ft 297 kts 86°
2026-04-17 00:40 52.17991 4.91980 10139 ft 302 kts 74°
2026-04-17 00:40 52.18640 4.95301 10648 ft 310 kts 73°
2026-04-17 00:40 52.19302 4.98646 11101 ft 318 kts 73°
2026-04-17 00:40 52.19976 5.02112 11685 ft 322 kts 73°
2026-04-17 00:41 52.20649 5.05630 12231 ft 328 kts 73°
2026-04-17 00:41 52.21341 5.09277 12514 ft 343 kts 73°
2026-04-17 00:41 52.22051 5.13047 12757 ft 358 kts 73°
2026-04-17 00:41 52.22798 5.17028 12966 ft 372 kts 73°
2026-04-17 00:42 52.23569 5.21159 13202 ft 386 kts 73°
2026-04-17 00:42 52.24182 5.25482 13398 ft 398 kts 83°
2026-04-17 00:42 52.24234 5.29998 13620 ft 407 kts 94°
2026-04-17 00:42 52.24014 5.34651 13987 ft 413 kts 96°
2026-04-17 00:43 52.23760 5.39354 14402 ft 416 kts 96°
2026-04-17 00:43 52.23507 5.44091 14821 ft 420 kts 95°
2026-04-17 00:43 52.23257 5.48791 15286 ft 421 kts 96°
2026-04-17 00:43 52.22782 5.53527 15710 ft 424 kts 106°
2026-04-17 00:44 52.21819 5.58096 16143 ft 426 kts 112°
2026-04-17 00:44 52.20718 5.62612 16586 ft 429 kts 113°
2026-04-17 00:44 52.19604 5.67137 16991 ft 432 kts 113°
2026-04-17 00:44 52.18486 5.71692 17410 ft 434 kts 112°
2026-04-17 00:45 52.17370 5.76250 17806 ft 437 kts 112°
2026-04-17 00:45 52.16231 5.80899 18223 ft 440 kts 112°
2026-04-17 00:45 52.15101 5.85509 18602 ft 443 kts 112°
2026-04-17 00:45 52.13944 5.90218 18942 ft 446 kts 112°
2026-04-17 00:46 52.12794 5.94896 19278 ft 449 kts 112°
2026-04-17 00:46 52.11622 5.99652 19603 ft 451 kts 112°
2026-04-17 00:46 52.10459 6.04392 19942 ft 454 kts 111°
2026-04-17 00:46 52.09505 6.09316 20281 ft 457 kts 104°
2026-04-17 00:47 52.08832 6.14322 20620 ft 459 kts 101°
2026-04-17 00:47 52.08269 6.19486 20967 ft 462 kts 99°
2026-04-17 00:47 52.07760 6.24686 21312 ft 464 kts 98°
2026-04-17 00:47 52.07268 6.29833 21632 ft 467 kts 99°
2026-04-17 00:48 52.06753 6.35110 21978 ft 470 kts 99°
2026-04-17 00:48 52.06229 6.40321 22333 ft 472 kts 99°
2026-04-17 00:48 52.05683 6.45601 22710 ft 474 kts 99°
2026-04-17 00:48 52.05312 6.49121 22934 ft 476 kts 99°
2026-04-17 00:49 52.04559 6.56187 23378 ft 479 kts 99°
2026-04-17 00:49 52.04175 6.59754 23588 ft 481 kts 99°
2026-04-17 00:49 52.03401 6.66907 23999 ft 484 kts 99°
2026-04-17 00:49 52.03012 6.70493 24178 ft 486 kts 99°
2026-04-17 00:50 52.02225 6.77713 24561 ft 489 kts 99°
2026-04-17 00:50 52.01784 6.81323 24756 ft 491 kts 102°
2026-04-17 00:50 52.00972 6.86761 25039 ft 494 kts 104°
2026-04-17 00:50 52.00071 6.92175 25313 ft 496 kts 105°
2026-04-17 00:51 51.99152 6.97555 25594 ft 499 kts 105°
2026-04-17 00:51 51.98227 7.03014 25882 ft 501 kts 105°
2026-04-17 00:51 51.97328 7.08440 26185 ft 504 kts 104°
2026-04-17 00:51 51.96411 7.13984 26479 ft 506 kts 105°
2026-04-17 00:52 51.95435 7.19457 26766 ft 509 kts 106°
2026-04-17 00:52 51.94400 7.24955 27059 ft 512 kts 107°
2026-04-17 00:52 51.93350 7.30440 27355 ft 514 kts 107°
2026-04-17 00:52 51.92279 7.36021 27661 ft 517 kts 107°
2026-04-17 00:53 51.91227 7.41543 27940 ft 520 kts 106°
2026-04-17 00:53 51.90154 7.47208 28253 ft 523 kts 106°
2026-04-17 00:53 51.89085 7.52867 28528 ft 525 kts 106°
2026-04-17 00:53 51.88014 7.58545 28815 ft 528 kts 106°
2026-04-17 00:54 51.86934 7.64264 29104 ft 531 kts 106°
2026-04-17 00:54 51.85859 7.69936 29372 ft 533 kts 106°
2026-04-17 00:54 51.84816 7.75730 29632 ft 535 kts 103°
2026-04-17 00:54 51.83970 7.81605 29955 ft 536 kts 100°
2026-04-17 00:55 51.83234 7.87471 30310 ft 536 kts 99°
2026-04-17 00:55 51.82516 7.93405 30613 ft 536 kts 99°
2026-04-17 00:55 51.81782 7.99337 30943 ft 536 kts 100°
2026-04-17 00:55 51.81034 8.05172 31272 ft 536 kts 100°
2026-04-17 00:56 51.80253 8.11067 31599 ft 536 kts 101°
2026-04-17 00:56 51.79451 8.16979 31912 ft 536 kts 101°
2026-04-17 00:56 51.78639 8.22867 32209 ft 536 kts 101°
2026-04-17 00:56 51.77823 8.28746 32525 ft 536 kts 101°
2026-04-17 00:57 51.77000 8.34635 32825 ft 537 kts 101°
2026-04-17 00:57 51.76177 8.40519 33115 ft 537 kts 101°
2026-04-17 00:57 51.75358 8.46350 33410 ft 537 kts 101°
2026-04-17 00:57 51.74531 8.52224 33688 ft 537 kts 101°
2026-04-17 00:58 51.73701 8.58103 33975 ft 537 kts 101°
2026-04-17 00:58 51.72863 8.64018 34260 ft 537 kts 101°
2026-04-17 00:58 51.72036 8.69828 34565 ft 535 kts 101°
2026-04-17 00:58 51.71202 8.75663 34934 ft 532 kts 101°
2026-04-17 00:59 51.70365 8.81499 35174 ft 532 kts 101°
2026-04-17 00:59 51.69523 8.87350 35235 ft 537 kts 101°
2026-04-17 00:59 51.67825 8.99089 35232 ft 540 kts 101°
2026-04-17 01:00 51.66104 9.10887 35232 ft 539 kts 101°
2026-04-17 01:00 51.64382 9.22598 35236 ft 539 kts 101°
2026-04-17 01:01 51.62640 9.34361 35243 ft 539 kts 101°
2026-04-17 01:01 51.60885 9.46125 35243 ft 539 kts 101°
2026-04-17 01:02 51.59131 9.57793 35242 ft 539 kts 102°
2026-04-17 01:02 51.57355 9.69512 35256 ft 540 kts 101°
2026-04-17 01:03 51.55559 9.81290 35244 ft 541 kts 101°
2026-04-17 01:03 51.53765 9.92965 35248 ft 541 kts 102°
2026-04-17 01:04 51.51943 10.04739 35251 ft 541 kts 102°
2026-04-17 01:04 51.50127 10.16382 35246 ft 541 kts 101°
2026-04-17 01:05 51.48286 10.28107 35247 ft 541 kts 102°
2026-04-17 01:05 51.46384 10.39791 35244 ft 542 kts 106°
2026-04-17 01:06 51.42984 10.50607 35248 ft 545 kts 127°
2026-04-17 01:06 51.40483 10.55058 35247 ft 543 kts 139°
2026-04-17 01:06 51.37571 10.58923 35254 ft 542 kts 144°
2026-04-17 01:07 51.31487 10.66140 35234 ft 544 kts 146°
2026-04-17 01:07 51.25367 10.73169 35242 ft 544 kts 146°
2026-04-17 01:08 51.19253 10.80248 35239 ft 544 kts 146°
2026-04-17 01:08 51.13133 10.87379 35239 ft 544 kts 146°
2026-04-17 01:09 51.07021 10.94496 35252 ft 544 kts 146°
2026-04-17 01:09 51.00934 11.01559 35244 ft 544 kts 146°
2026-04-17 01:10 50.94809 11.08638 35240 ft 544 kts 146°
2026-04-17 01:10 50.88679 11.15699 35227 ft 544 kts 146°
2026-04-17 01:11 50.82545 11.22741 35251 ft 544 kts 146°
2026-04-17 01:11 50.76442 11.29724 35246 ft 543 kts 146°
2026-04-17 01:12 50.70304 11.36723 35252 ft 544 kts 146°
2026-04-17 01:12 50.64186 11.43678 35251 ft 544 kts 146°
2026-04-17 01:13 50.58023 11.50662 35240 ft 544 kts 146°
2026-04-17 01:13 50.51804 11.57448 35257 ft 543 kts 150°
2026-04-17 01:14 50.45338 11.63557 35260 ft 542 kts 152°
2026-04-17 01:14 50.38867 11.69551 35262 ft 544 kts 151°
2026-04-17 01:15 50.32375 11.75682 35264 ft 544 kts 151°
2026-04-17 01:15 50.25901 11.81855 35268 ft 544 kts 150°
2026-04-17 01:16 50.19436 11.88017 35267 ft 544 kts 150°
2026-04-17 01:16 50.13002 11.94126 35263 ft 544 kts 150°
2026-04-17 01:17 50.06523 12.00251 35256 ft 545 kts 150°
2026-04-17 01:17 50.00035 12.06364 35247 ft 545 kts 150°
2026-04-17 01:18 49.93584 12.12424 35251 ft 544 kts 151°
2026-04-17 01:18 49.87095 12.18500 35239 ft 544 kts 151°
2026-04-17 01:19 49.80613 12.24551 35254 ft 544 kts 151°
2026-04-17 01:19 49.74122 12.30597 35252 ft 544 kts 150°
2026-04-17 01:20 49.67971 12.37465 35252 ft 546 kts 143°
2026-04-17 01:20 49.61969 12.44678 35250 ft 546 kts 143°
2026-04-17 01:21 49.56021 12.51885 35256 ft 546 kts 143°
2026-04-17 01:21 49.50035 12.59094 35233 ft 546 kts 143°
2026-04-17 01:22 49.44030 12.66281 35263 ft 545 kts 143°
2026-04-17 01:22 49.38034 12.73427 35264 ft 545 kts 143°
2026-04-17 01:23 49.32032 12.80557 35257 ft 545 kts 143°
2026-04-17 01:23 49.26062 12.87628 35262 ft 545 kts 143°
2026-04-17 01:24 49.20054 12.94722 35267 ft 544 kts 143°
2026-04-17 01:24 49.14058 13.01781 35269 ft 543 kts 143°
2026-04-17 01:25 49.08069 13.08808 35267 ft 543 kts 143°
2026-04-17 01:25 49.02264 13.15599 35268 ft 543 kts 143°
2026-04-17 01:26 48.96278 13.22579 35261 ft 543 kts 143°
2026-04-17 01:26 48.90260 13.29576 35274 ft 542 kts 143°
2026-04-17 01:27 48.84290 13.36496 35270 ft 544 kts 143°
2026-04-17 01:27 48.78241 13.43485 35270 ft 544 kts 143°
2026-04-17 01:28 48.72217 13.50424 35255 ft 544 kts 143°
2026-04-17 01:28 48.66179 13.57223 35267 ft 542 kts 148°
2026-04-17 01:29 48.56166 13.65170 35265 ft 541 kts 156°
2026-04-17 01:30 48.49350 13.70114 35261 ft 542 kts 156°
2026-04-17 01:30 48.42549 13.75031 35263 ft 541 kts 156°
2026-04-17 01:31 48.35797 13.79931 35260 ft 541 kts 155°
2026-04-17 01:31 48.29005 13.84859 35272 ft 541 kts 155°
2026-04-17 01:32 48.22255 13.89746 35251 ft 541 kts 155°
2026-04-17 01:32 48.15596 13.95082 35263 ft 541 kts 150°
2026-04-17 01:33 48.10213 13.99875 35258 ft 541 kts 150°
2026-04-17 01:33 48.02668 14.06531 35266 ft 541 kts 150°
2026-04-17 01:34 47.97204 14.11234 35265 ft 541 kts 151°
2026-04-17 01:34 47.90685 14.16781 35270 ft 540 kts 151°
2026-04-17 01:35 47.84125 14.22337 35274 ft 540 kts 151°
2026-04-17 01:35 47.77602 14.27852 35274 ft 539 kts 151°
2026-04-17 01:36 47.71074 14.33358 35281 ft 539 kts 151°
2026-04-17 01:36 47.64587 14.38815 35280 ft 539 kts 151°
2026-04-17 01:37 47.58069 14.44282 35280 ft 537 kts 151°
2026-04-17 01:37 47.51568 14.49718 35268 ft 537 kts 151°
2026-04-17 01:38 47.45071 14.55135 35281 ft 537 kts 151°
2026-04-17 01:38 47.38548 14.60559 35274 ft 537 kts 151°
2026-04-17 01:39 47.32070 14.65930 35278 ft 537 kts 151°
2026-04-17 01:39 47.25559 14.71314 35261 ft 534 kts 151°
2026-04-17 01:40 47.19068 14.76665 35266 ft 532 kts 151°
2026-04-17 01:40 47.12611 14.81974 35267 ft 532 kts 151°
2026-04-17 01:41 47.06172 14.87253 35267 ft 532 kts 151°
2026-04-17 01:41 46.99693 14.92548 35279 ft 532 kts 151°
2026-04-17 01:42 46.93248 14.97800 35259 ft 529 kts 151°
2026-04-17 01:42 46.86854 15.03000 35249 ft 528 kts 151°
2026-04-17 01:43 46.80411 15.08224 35249 ft 529 kts 151°
2026-04-17 01:43 46.73972 15.13429 35241 ft 528 kts 151°
2026-04-17 01:44 46.67524 15.18628 35246 ft 528 kts 151°
2026-04-17 01:44 46.61131 15.23858 35234 ft 526 kts 149°
2026-04-17 01:45 46.54928 15.29387 35235 ft 526 kts 148°
2026-04-17 01:45 46.48707 15.34996 35234 ft 526 kts 148°
2026-04-17 01:46 46.42500 15.40508 35236 ft 526 kts 149°
2026-04-17 01:46 46.36243 15.46007 35220 ft 524 kts 149°
2026-04-17 01:47 46.30220 15.51272 35219 ft 522 kts 149°
2026-04-17 01:47 46.23994 15.56705 35216 ft 522 kts 149°
2026-04-17 01:48 46.17773 15.62121 35214 ft 522 kts 149°
2026-04-17 01:48 46.11552 15.67458 35211 ft 522 kts 150°
2026-04-17 01:49 46.05256 15.72712 35205 ft 521 kts 150°
2026-04-17 01:49 45.99007 15.77916 35209 ft 520 kts 150°
2026-04-17 01:50 45.92742 15.83143 35207 ft 520 kts 150°
2026-04-17 01:50 45.86521 15.88329 35207 ft 520 kts 150°
2026-04-17 01:51 45.80259 15.93539 35207 ft 519 kts 150°
2026-04-17 01:51 45.74015 15.98719 35210 ft 517 kts 150°
2026-04-17 01:52 45.67812 16.03850 35203 ft 516 kts 150°
2026-04-17 01:52 45.61580 16.08991 35203 ft 516 kts 150°
2026-04-17 01:53 45.55343 16.14123 35196 ft 516 kts 150°
2026-04-17 01:53 45.49121 16.19231 35198 ft 515 kts 151°
2026-04-17 01:54 45.42919 16.24309 35196 ft 513 kts 151°
2026-04-17 01:54 45.36764 16.29335 35191 ft 512 kts 151°
2026-04-17 01:55 45.30586 16.34367 35192 ft 512 kts 151°
2026-04-17 01:55 45.24392 16.39399 35192 ft 512 kts 151°
2026-04-17 01:56 45.18214 16.44406 35193 ft 509 kts 151°
2026-04-17 01:56 45.12142 16.49395 35188 ft 507 kts 148°
2026-04-17 01:57 45.06259 16.54960 35189 ft 507 kts 146°
2026-04-17 01:57 45.00579 16.60517 35186 ft 507 kts 146°
2026-04-17 01:58 44.94765 16.66087 35189 ft 507 kts 147°
2026-04-17 01:58 44.88897 16.71613 35189 ft 505 kts 147°
2026-04-17 01:59 44.83072 16.77061 35183 ft 505 kts 147°
2026-04-17 01:59 44.77197 16.82545 35183 ft 505 kts 147°
2026-04-17 02:00 44.71326 16.88015 35182 ft 505 kts 147°
2026-04-17 02:00 44.65512 16.93421 35182 ft 504 kts 148°
2026-04-17 02:01 44.59660 16.98850 35183 ft 504 kts 148°
2026-04-17 02:01 44.53796 17.04277 35180 ft 503 kts 148°
2026-04-17 02:02 44.47943 17.09680 35173 ft 503 kts 148°
2026-04-17 02:02 44.42222 17.15231 35191 ft 503 kts 144°
2026-04-17 02:03 44.36640 17.21161 35186 ft 502 kts 143°
2026-04-17 02:03 44.31081 17.27055 35167 ft 502 kts 144°
2026-04-17 02:04 44.25517 17.32852 35185 ft 501 kts 144°
2026-04-17 02:04 44.19888 17.38657 35156 ft 501 kts 144°
2026-04-17 02:05 44.14283 17.44417 35173 ft 500 kts 144°
2026-04-17 02:05 44.08725 17.50119 35167 ft 499 kts 144°
2026-04-17 02:06 44.03111 17.55869 35159 ft 499 kts 144°
2026-04-17 02:06 43.97505 17.61596 35159 ft 500 kts 143°
2026-04-17 02:07 43.91911 17.67297 35157 ft 498 kts 143°
2026-04-17 02:07 43.86359 17.72942 35154 ft 498 kts 143°
2026-04-17 02:08 43.80767 17.78614 35127 ft 498 kts 144°
2026-04-17 02:08 43.75160 17.84287 35145 ft 499 kts 143°
2026-04-17 02:09 43.69589 17.89913 35121 ft 498 kts 143°
2026-04-17 02:09 43.63976 17.95567 35116 ft 498 kts 143°
2026-04-17 02:10 43.58378 18.01190 35102 ft 497 kts 143°
2026-04-17 02:10 43.52771 18.06809 35090 ft 498 kts 143°
2026-04-17 02:11 43.47195 18.12385 35084 ft 497 kts 143°
2026-04-17 02:11 43.41585 18.17983 35089 ft 499 kts 143°
2026-04-17 02:12 43.35942 18.23599 35106 ft 499 kts 143°
2026-04-17 02:12 43.30310 18.29193 35099 ft 501 kts 143°
2026-04-17 02:13 43.24651 18.34800 35094 ft 500 kts 143°
2026-04-17 02:13 43.19003 18.40382 35085 ft 499 kts 143°
2026-04-17 02:14 43.13368 18.45942 35097 ft 500 kts 144°
2026-04-17 02:14 43.07725 18.51495 35088 ft 498 kts 144°
2026-04-17 02:15 43.02089 18.57026 35092 ft 498 kts 144°
2026-04-17 02:15 42.96439 18.62558 35081 ft 500 kts 144°
2026-04-17 02:16 42.91703 18.67186 35082 ft 499 kts 144°
2026-04-17 02:16 42.86037 18.72712 35093 ft 501 kts 145°
2026-04-17 02:17 42.80415 18.78182 35069 ft 496 kts 145°
2026-04-17 02:17 42.74808 18.83625 35066 ft 494 kts 145°
2026-04-17 02:18 42.69198 18.89057 35057 ft 494 kts 145°
2026-04-17 02:18 42.63595 18.94472 35056 ft 494 kts 145°
2026-04-17 02:19 42.57981 18.99884 35036 ft 493 kts 145°
2026-04-17 02:19 42.52408 19.05247 35022 ft 494 kts 145°
2026-04-17 02:20 42.46801 19.10628 35023 ft 494 kts 145°
2026-04-17 02:20 42.41179 19.16013 35020 ft 494 kts 145°
2026-04-17 02:21 42.35576 19.21364 35020 ft 492 kts 145°
2026-04-17 02:21 42.29974 19.26705 35020 ft 490 kts 145°
2026-04-17 02:22 42.24421 19.31988 35017 ft 490 kts 145°
2026-04-17 02:22 42.18856 19.37288 35013 ft 490 kts 144°
2026-04-17 02:23 42.13304 19.42604 34998 ft 490 kts 144°
2026-04-17 02:23 42.07746 19.47920 34999 ft 489 kts 144°
2026-04-17 02:24 42.02189 19.53218 34998 ft 489 kts 144°
2026-04-17 02:24 41.96638 19.58493 34990 ft 488 kts 144°
2026-04-17 02:25 41.91075 19.63768 34992 ft 488 kts 144°
2026-04-17 02:25 41.85525 19.69020 34993 ft 487 kts 144°
2026-04-17 02:26 41.79973 19.74261 34995 ft 487 kts 144°
2026-04-17 02:26 41.74432 19.79482 34987 ft 487 kts 144°
2026-04-17 02:27 41.68892 19.84691 35008 ft 485 kts 145°
2026-04-17 02:27 41.63367 19.89875 35004 ft 485 kts 145°
2026-04-17 02:28 41.57834 19.95055 35014 ft 485 kts 145°
2026-04-17 02:28 41.52297 20.00227 35013 ft 485 kts 145°
2026-04-17 02:29 41.46755 20.05393 34993 ft 485 kts 145°
2026-04-17 02:29 41.41216 20.10545 35011 ft 486 kts 145°
2026-04-17 02:30 41.35667 20.15696 35012 ft 485 kts 146°
2026-04-17 02:30 41.30132 20.20823 35033 ft 484 kts 146°
2026-04-17 02:31 41.24609 20.25928 35027 ft 483 kts 146°
2026-04-17 02:31 41.19080 20.31027 35026 ft 483 kts 146°
2026-04-17 02:32 41.13571 20.36096 35038 ft 479 kts 145°
2026-04-17 02:32 41.08059 20.41160 35040 ft 478 kts 145°
2026-04-17 02:33 41.02574 20.46188 35041 ft 480 kts 145°
2026-04-17 02:33 40.97085 20.51208 35047 ft 480 kts 145°
2026-04-17 02:34 40.91580 20.56233 35047 ft 481 kts 145°
2026-04-17 02:34 40.86073 20.61250 35055 ft 480 kts 145°
2026-04-17 02:35 40.80565 20.66257 35057 ft 480 kts 145°
2026-04-17 02:35 40.72479 20.73588 35054 ft 480 kts 146°
2026-04-17 02:36 40.66972 20.78568 35057 ft 480 kts 145°
2026-04-17 02:36 40.61463 20.83541 35059 ft 480 kts 145°
2026-04-17 02:37 40.55947 20.88510 35058 ft 480 kts 145°
2026-04-17 02:37 40.50435 20.93466 35119 ft 479 kts 145°
2026-04-17 02:38 40.47751 20.96038 35458 ft 476 kts 141°
2026-04-17 02:38 40.45169 20.98776 35813 ft 474 kts 140°
2026-04-17 02:38 40.42635 21.01515 36187 ft 471 kts 140°
2026-04-17 02:38 40.40115 21.04269 36400 ft 472 kts 140°
2026-04-17 02:39 40.37592 21.07037 36613 ft 472 kts 140°
2026-04-17 02:39 40.35080 21.09792 36918 ft 470 kts 140°
2026-04-17 02:39 40.32572 21.12539 37056 ft 472 kts 140°
2026-04-17 02:39 40.30032 21.15315 37063 ft 477 kts 140°
2026-04-17 02:40 40.24903 21.20901 37061 ft 480 kts 140°
2026-04-17 02:40 40.19768 21.26478 37062 ft 479 kts 140°
2026-04-17 02:41 40.14611 21.32068 37060 ft 478 kts 140°
2026-04-17 02:41 40.09490 21.37607 37061 ft 478 kts 140°
2026-04-17 02:42 40.04362 21.43144 37062 ft 478 kts 140°
2026-04-17 02:42 39.99259 21.48644 37063 ft 478 kts 140°
2026-04-17 02:43 39.94116 21.54174 37064 ft 478 kts 140°
2026-04-17 02:43 39.88988 21.59677 37063 ft 477 kts 140°
2026-04-17 02:44 39.83864 21.65165 37064 ft 477 kts 140°
2026-04-17 02:44 39.78729 21.70653 37065 ft 477 kts 140°
2026-04-17 02:45 39.73592 21.76133 37057 ft 477 kts 140°
2026-04-17 02:45 39.69319 21.80685 37049 ft 477 kts 140°
2026-04-17 02:46 39.64181 21.86146 37050 ft 476 kts 140°
2026-04-17 02:46 39.58223 21.92464 37051 ft 475 kts 141°
2026-04-17 02:47 39.53929 21.97011 37045 ft 475 kts 141°
2026-04-17 02:47 39.48796 22.02434 37045 ft 475 kts 141°
2026-04-17 02:48 39.43667 22.07843 37042 ft 475 kts 141°
2026-04-17 02:48 39.38532 22.13248 37043 ft 475 kts 141°
2026-04-17 02:49 39.33441 22.18595 37045 ft 472 kts 141°
2026-04-17 02:49 39.28335 22.23948 37042 ft 472 kts 141°
2026-04-17 02:50 39.23234 22.29286 37042 ft 472 kts 141°
2026-04-17 02:50 39.18128 22.34618 37042 ft 472 kts 141°
2026-04-17 02:51 39.13017 22.39946 37052 ft 472 kts 141°
2026-04-17 02:51 39.07905 22.45264 37042 ft 472 kts 141°
2026-04-17 02:52 39.02799 22.50565 37044 ft 471 kts 141°
2026-04-17 02:52 38.97698 22.55851 37044 ft 471 kts 141°
2026-04-17 02:53 38.92599 22.61126 37044 ft 471 kts 141°
2026-04-17 02:53 38.87521 22.66369 37039 ft 471 kts 141°
2026-04-17 02:54 38.82406 22.71638 37039 ft 470 kts 140°
2026-04-17 02:54 38.77304 22.76886 37034 ft 470 kts 141°
2026-04-17 02:55 38.72191 22.82136 37035 ft 470 kts 141°
2026-04-17 02:55 38.67082 22.87370 37028 ft 470 kts 141°
2026-04-17 02:56 38.61967 22.92601 37028 ft 470 kts 141°
2026-04-17 02:56 38.56887 22.97786 37021 ft 468 kts 140°
2026-04-17 02:57 38.51851 23.02915 37021 ft 460 kts 140°
2026-04-17 02:57 38.46816 23.08039 37016 ft 464 kts 140°
2026-04-17 02:58 38.41755 23.13180 37022 ft 468 kts 141°
2026-04-17 02:58 38.36640 23.18361 37013 ft 470 kts 141°
2026-04-17 02:59 38.31511 23.23547 37012 ft 470 kts 141°
2026-04-17 02:59 38.26388 23.28718 37013 ft 469 kts 141°
2026-04-17 03:00 38.21276 23.33869 37006 ft 470 kts 141°
2026-04-17 03:00 38.16147 23.39027 36998 ft 470 kts 141°
2026-04-17 03:01 38.11008 23.44186 36937 ft 470 kts 141°
2026-04-17 03:01 38.05896 23.49309 36940 ft 467 kts 141°
2026-04-17 03:02 38.00819 23.54387 36942 ft 468 kts 141°
2026-04-17 03:02 37.95671 23.59528 36961 ft 472 kts 141°
2026-04-17 03:03 37.90501 23.64680 36947 ft 472 kts 141°
2026-04-17 03:03 37.85324 23.69829 36946 ft 472 kts 141°
2026-04-17 03:04 37.80185 23.74932 36939 ft 472 kts 141°
2026-04-17 03:04 37.75018 23.80051 36937 ft 469 kts 140°
2026-04-17 03:05 37.69896 23.85119 36932 ft 468 kts 141°
2026-04-17 03:05 37.64741 23.90210 36924 ft 470 kts 140°
2026-04-17 03:06 37.59577 23.95304 36915 ft 472 kts 141°
2026-04-17 03:06 37.54401 24.00394 36913 ft 470 kts 140°
2026-04-17 03:07 37.49242 24.05461 36899 ft 470 kts 141°
2026-04-17 03:07 37.44101 24.10503 36899 ft 466 kts 141°
2026-04-17 03:08 37.38978 24.15516 36892 ft 468 kts 141°
2026-04-17 03:08 37.33873 24.20503 36894 ft 469 kts 141°
2026-04-17 03:09 37.28695 24.25551 36890 ft 471 kts 141°
2026-04-17 03:09 37.23545 24.30564 36887 ft 469 kts 142°
2026-04-17 03:10 37.18395 24.35567 36890 ft 467 kts 141°
2026-04-17 03:10 37.13239 24.40569 36887 ft 469 kts 142°
2026-04-17 03:11 37.08068 24.45577 36887 ft 469 kts 142°
2026-04-17 03:11 37.02885 24.50586 36886 ft 471 kts 142°
2026-04-17 03:12 36.97675 24.55612 36879 ft 469 kts 142°
2026-04-17 03:12 36.92518 24.60580 36887 ft 470 kts 141°
2026-04-17 03:13 36.87380 24.65515 36863 ft 463 kts 141°
2026-04-17 03:13 36.82235 24.70454 36860 ft 467 kts 141°
2026-04-17 03:14 36.77075 24.75399 36858 ft 470 kts 142°
2026-04-17 03:14 36.71899 24.80350 36851 ft 469 kts 141°
2026-04-17 03:15 36.66739 24.85278 36842 ft 467 kts 141°
2026-04-17 03:15 36.61584 24.90190 36833 ft 465 kts 141°
2026-04-17 03:16 36.56475 24.95048 36829 ft 463 kts 142°
2026-04-17 03:16 36.51330 24.99933 36830 ft 464 kts 142°
2026-04-17 03:17 36.46137 25.04860 36815 ft 470 kts 142°
2026-04-17 03:17 36.40960 25.09762 36816 ft 465 kts 142°
2026-04-17 03:18 36.35843 25.14597 36786 ft 464 kts 142°
2026-04-17 03:18 36.30726 25.19423 36811 ft 462 kts 142°
2026-04-17 03:19 36.25590 25.24262 36784 ft 466 kts 142°
2026-04-17 03:19 36.20426 25.29118 36780 ft 466 kts 142°
2026-04-17 03:20 36.15244 25.33983 36801 ft 469 kts 142°
2026-04-17 03:20 36.10049 25.38850 36804 ft 467 kts 142°
2026-04-17 03:21 36.04860 25.43703 36791 ft 467 kts 142°
2026-04-17 03:21 35.99696 25.48526 36789 ft 469 kts 142°
2026-04-17 03:22 35.94477 25.53391 36805 ft 469 kts 142°
2026-04-17 03:22 35.89256 25.58250 36788 ft 470 kts 142°
2026-04-17 03:23 35.84030 25.63105 36787 ft 470 kts 143°
2026-04-17 03:23 35.78810 25.67948 36787 ft 469 kts 143°
2026-04-17 03:24 35.73584 25.72787 36786 ft 471 kts 143°
2026-04-17 03:24 35.68336 25.77638 36779 ft 472 kts 143°
2026-04-17 03:25 35.63114 25.82457 36783 ft 472 kts 143°
2026-04-17 03:25 35.57860 25.87297 36783 ft 472 kts 143°
2026-04-17 03:26 35.53478 25.91328 36794 ft 472 kts 143°
2026-04-17 03:26 35.48222 25.96156 36785 ft 472 kts 144°
2026-04-17 03:27 35.42962 26.00978 36775 ft 471 kts 144°
2026-04-17 03:27 35.37708 26.05789 36786 ft 471 kts 144°
2026-04-17 03:28 35.32447 26.10597 36783 ft 471 kts 144°
2026-04-17 03:28 35.27185 26.15397 36757 ft 471 kts 144°
2026-04-17 03:29 35.21926 26.20188 36755 ft 471 kts 144°
2026-04-17 03:29 35.16657 26.24979 36754 ft 471 kts 144°
2026-04-17 03:30 35.11429 26.29725 36756 ft 470 kts 144°
2026-04-17 03:30 35.06181 26.34481 36750 ft 470 kts 144°
2026-04-17 03:31 35.00931 26.39231 36742 ft 470 kts 144°
2026-04-17 03:31 34.95678 26.43977 36736 ft 470 kts 144°
2026-04-17 03:32 34.90560 26.48593 36740 ft 470 kts 145°
2026-04-17 03:32 34.85286 26.53341 36731 ft 470 kts 145°
2026-04-17 03:33 34.80049 26.58050 36723 ft 467 kts 145°
2026-04-17 03:33 34.74777 26.62781 36714 ft 474 kts 145°
2026-04-17 03:34 34.69465 26.67541 36717 ft 474 kts 145°
2026-04-17 03:34 34.64134 26.72311 36715 ft 475 kts 145°
2026-04-17 03:35 34.58838 26.77046 36714 ft 477 kts 146°
2026-04-17 03:35 34.53470 26.81831 36712 ft 479 kts 146°
2026-04-17 03:36 34.45375 26.89034 36702 ft 479 kts 146°
2026-04-17 03:37 34.40042 26.93771 36709 ft 478 kts 146°
2026-04-17 03:37 34.34676 26.98530 36705 ft 478 kts 146°
2026-04-17 03:38 34.29290 27.03298 36700 ft 481 kts 146°
2026-04-17 03:38 34.23872 27.08085 36696 ft 483 kts 146°
2026-04-17 03:39 34.18436 27.12882 36694 ft 483 kts 146°
2026-04-17 03:39 34.13009 27.17663 36673 ft 483 kts 147°
2026-04-17 03:40 34.07572 27.22446 36692 ft 483 kts 147°
2026-04-17 03:40 34.02139 27.27216 36684 ft 484 kts 147°
2026-04-17 03:41 33.96665 27.31965 36677 ft 484 kts 150°
2026-04-17 03:41 33.90744 27.35699 36672 ft 480 kts 158°
2026-04-17 03:42 33.84638 27.38980 36672 ft 480 kts 159°
2026-04-17 03:42 33.78511 27.42190 36672 ft 480 kts 159°
2026-04-17 03:43 33.72393 27.45404 36669 ft 482 kts 160°
2026-04-17 03:43 33.66272 27.48631 36662 ft 483 kts 160°
2026-04-17 03:44 33.60121 27.51877 36665 ft 483 kts 160°
2026-04-17 03:44 33.53965 27.55121 36664 ft 483 kts 160°
2026-04-17 03:45 33.47813 27.58357 36655 ft 483 kts 161°
2026-04-17 03:45 33.41634 27.61598 36659 ft 486 kts 161°
2026-04-17 03:46 33.35440 27.64845 36659 ft 486 kts 161°
2026-04-17 03:46 33.29237 27.68092 36658 ft 486 kts 161°
2026-04-17 03:47 33.23072 27.71314 36657 ft 486 kts 161°
2026-04-17 03:47 33.16871 27.74550 36646 ft 487 kts 161°
2026-04-17 03:48 33.10858 27.77681 36657 ft 487 kts 161°
2026-04-17 03:48 33.04651 27.80910 36655 ft 487 kts 161°
2026-04-17 03:49 32.98437 27.84137 36643 ft 487 kts 161°
2026-04-17 03:49 32.92223 27.87361 36649 ft 487 kts 162°
2026-04-17 03:50 32.86009 27.90578 36656 ft 487 kts 162°
2026-04-17 03:50 32.79787 27.93793 36657 ft 487 kts 162°
2026-04-17 03:51 32.73595 27.96988 36651 ft 487 kts 162°
2026-04-17 03:51 32.67373 28.00195 36651 ft 487 kts 162°
2026-04-17 03:52 32.61148 28.03398 36653 ft 487 kts 162°
2026-04-17 03:52 32.54916 28.06600 36648 ft 487 kts 162°
2026-04-17 03:53 32.48692 28.09795 36652 ft 487 kts 163°
2026-04-17 03:53 32.42480 28.12976 36655 ft 486 kts 163°
2026-04-17 03:54 32.36291 28.16140 36657 ft 488 kts 163°
2026-04-17 03:54 32.30052 28.19325 36661 ft 488 kts 163°
2026-04-17 03:55 32.23804 28.22512 36660 ft 488 kts 163°
2026-04-17 03:55 32.17557 28.25693 36661 ft 488 kts 163°
2026-04-17 03:56 32.11309 28.28871 36664 ft 489 kts 164°
2026-04-17 03:56 32.05094 28.32026 36666 ft 490 kts 164°
2026-04-17 03:57 31.98822 28.35204 36670 ft 490 kts 164°
2026-04-17 03:57 31.92547 28.38385 36662 ft 490 kts 164°
2026-04-17 03:58 31.86286 28.41551 36673 ft 489 kts 164°
2026-04-17 03:58 31.80019 28.44710 36676 ft 491 kts 165°
2026-04-17 03:59 31.73721 28.47865 36672 ft 491 kts 165°
2026-04-17 03:59 31.67433 28.51012 36680 ft 491 kts 165°
2026-04-17 04:00 31.61182 28.54141 36687 ft 491 kts 165°
2026-04-17 04:00 31.54894 28.57286 36681 ft 491 kts 166°
2026-04-17 04:01 31.48594 28.60417 36690 ft 491 kts 166°
2026-04-17 04:01 31.42258 28.63562 36689 ft 491 kts 166°
2026-04-17 04:02 31.35965 28.66684 36670 ft 491 kts 166°
2026-04-17 04:02 31.29710 28.69787 36665 ft 491 kts 166°
2026-04-17 04:03 31.23403 28.72906 36695 ft 492 kts 166°
2026-04-17 04:03 31.17101 28.76020 36700 ft 492 kts 166°
2026-04-17 04:04 31.10795 28.79131 36699 ft 492 kts 166°
2026-04-17 04:04 31.04479 28.82243 36702 ft 492 kts 167°
2026-04-17 04:05 30.98156 28.85355 36702 ft 493 kts 167°
2026-04-17 04:05 30.91832 28.88460 36705 ft 493 kts 167°
2026-04-17 04:06 30.85545 28.91544 36713 ft 493 kts 167°
2026-04-17 04:06 30.80270 28.94129 36713 ft 493 kts 167°
2026-04-17 04:07 30.73937 28.97228 36674 ft 493 kts 167°
2026-04-17 04:07 30.67585 29.00330 36713 ft 495 kts 167°
2026-04-17 04:08 30.61223 29.03434 36725 ft 495 kts 167°
2026-04-17 04:08 30.54890 29.06522 36715 ft 496 kts 167°
2026-04-17 04:09 30.48810 29.10611 36720 ft 519 kts 150°
2026-04-17 04:09 30.43516 29.16457 36713 ft 530 kts 142°
2026-04-17 04:10 30.38412 29.22669 36724 ft 533 kts 141°
2026-04-17 04:10 30.33302 29.28894 36724 ft 532 kts 142°
2026-04-17 04:11 30.28172 29.35065 36717 ft 531 kts 142°
2026-04-17 04:11 30.23027 29.41207 36723 ft 531 kts 142°
2026-04-17 04:12 30.17910 29.47297 36726 ft 531 kts 142°
2026-04-17 04:12 30.12758 29.53425 36722 ft 531 kts 142°
2026-04-17 04:13 30.07614 29.59536 36719 ft 530 kts 142°
2026-04-17 04:13 30.02467 29.65645 36725 ft 530 kts 142°
2026-04-17 04:14 29.97312 29.71753 36728 ft 530 kts 142°
2026-04-17 04:14 29.92194 29.77807 36726 ft 530 kts 142°
2026-04-17 04:15 29.87039 29.83895 36716 ft 530 kts 142°
2026-04-17 04:15 29.81877 29.89981 36737 ft 530 kts 142°
2026-04-17 04:16 29.76713 29.96060 36742 ft 530 kts 142°
2026-04-17 04:16 29.71555 30.02123 36741 ft 530 kts 142°
2026-04-17 04:17 29.66380 30.08197 36730 ft 530 kts 142°
2026-04-17 04:17 29.61217 30.14246 36737 ft 530 kts 142°
2026-04-17 04:18 29.56077 30.20259 36742 ft 530 kts 142°
2026-04-17 04:18 29.50898 30.26309 36742 ft 530 kts 142°
2026-04-17 04:19 29.45720 30.32349 36742 ft 530 kts 142°
2026-04-17 04:19 29.40544 30.38376 36709 ft 530 kts 142°
2026-04-17 04:20 29.35423 30.44403 36749 ft 532 kts 141°
2026-04-17 04:20 29.30315 30.50529 36749 ft 532 kts 141°
2026-04-17 04:21 29.25187 30.56671 36755 ft 532 kts 141°
2026-04-17 04:21 29.20064 30.62777 36756 ft 531 kts 141°
2026-04-17 04:22 29.14959 30.68841 36757 ft 531 kts 141°
2026-04-17 04:22 29.09831 30.74923 36763 ft 531 kts 141°
2026-04-17 04:23 29.04686 30.81016 36736 ft 531 kts 141°
2026-04-17 04:23 28.99528 30.87115 36764 ft 533 kts 141°
2026-04-17 04:24 28.94401 30.93168 36771 ft 533 kts 141°
2026-04-17 04:24 28.89234 30.99261 36769 ft 534 kts 141°
2026-04-17 04:25 28.84051 31.05362 36773 ft 534 kts 141°
2026-04-17 04:25 28.78875 31.11446 36787 ft 534 kts 141°
2026-04-17 04:26 28.73695 31.17528 36784 ft 534 kts 141°
2026-04-17 04:26 28.68517 31.23612 36771 ft 535 kts 141°
2026-04-17 04:27 28.63501 31.29879 36796 ft 539 kts 139°
2026-04-17 04:27 28.58515 31.36265 36796 ft 540 kts 139°
2026-04-17 04:28 28.53491 31.42639 36803 ft 540 kts 139°
2026-04-17 04:28 28.48452 31.48976 36801 ft 540 kts 139°
2026-04-17 04:29 28.43401 31.55301 36806 ft 540 kts 139°
2026-04-17 04:29 28.38382 31.61576 36807 ft 539 kts 139°
2026-04-17 04:30 28.33330 31.67886 36817 ft 539 kts 139°
2026-04-17 04:30 28.28274 31.74191 36815 ft 541 kts 139°
2026-04-17 04:31 28.23198 31.80510 36784 ft 541 kts 139°
2026-04-17 04:31 28.18125 31.86820 36821 ft 541 kts 139°
2026-04-17 04:32 28.13054 31.93117 36820 ft 541 kts 139°
2026-04-17 04:32 28.08009 31.99371 36824 ft 541 kts 139°
2026-04-17 04:33 28.03159 32.05920 36824 ft 550 kts 128°
2026-04-17 04:33 27.99277 32.13422 36821 ft 552 kts 123°
2026-04-17 04:34 27.93797 32.24888 36819 ft 552 kts 123°
2026-04-17 04:34 27.90137 32.32536 36792 ft 552 kts 123°
2026-04-17 04:35 27.86477 32.40117 36813 ft 553 kts 123°
2026-04-17 04:35 27.82769 32.47763 36811 ft 554 kts 123°
2026-04-17 04:36 27.79058 32.55400 36803 ft 554 kts 123°
2026-04-17 04:36 27.75346 32.63027 36780 ft 554 kts 123°
2026-04-17 04:37 27.71650 32.70608 36796 ft 553 kts 123°
2026-04-17 04:37 27.67935 32.78220 36793 ft 553 kts 123°
2026-04-17 04:38 27.64213 32.85829 36785 ft 553 kts 123°
2026-04-17 04:38 27.60488 32.93431 36784 ft 553 kts 123°
2026-04-17 04:39 27.56762 33.01020 36782 ft 554 kts 123°
2026-04-17 04:39 27.53032 33.08608 36776 ft 554 kts 123°
2026-04-17 04:40 27.49293 33.16197 36763 ft 554 kts 123°
2026-04-17 04:40 27.45577 33.23726 36777 ft 553 kts 123°
2026-04-17 04:41 27.41829 33.31306 36771 ft 553 kts 123°
2026-04-17 04:41 27.38088 33.38858 36768 ft 553 kts 124°
2026-04-17 04:42 27.34345 33.46412 36759 ft 553 kts 124°
2026-04-17 04:42 27.30568 33.53999 36762 ft 557 kts 124°
2026-04-17 04:43 27.26805 33.61551 36760 ft 557 kts 124°
2026-04-17 04:43 27.23012 33.69156 36731 ft 557 kts 124°
2026-04-17 04:44 27.19205 33.76770 36775 ft 560 kts 124°
2026-04-17 04:44 27.15930 33.84778 36772 ft 565 kts 116°
2026-04-17 04:45 27.12984 33.92984 36773 ft 566 kts 115°
2026-04-17 04:45 27.10104 34.01160 36768 ft 567 kts 115°
2026-04-17 04:46 27.07185 34.09397 36757 ft 567 kts 115°
2026-04-17 04:46 27.04247 34.17625 36759 ft 567 kts 115°
2026-04-17 04:47 27.01300 34.25849 36750 ft 567 kts 115°
2026-04-17 04:47 26.98353 34.34051 36754 ft 567 kts 115°
2026-04-17 04:48 26.95420 34.42194 36757 ft 567 kts 115°
2026-04-17 04:48 26.92461 34.50394 36772 ft 567 kts 115°
2026-04-17 04:49 26.89492 34.58606 36773 ft 568 kts 115°
2026-04-17 04:49 26.86521 34.66809 36774 ft 568 kts 115°
2026-04-17 04:50 26.83543 34.75012 36780 ft 568 kts 115°
2026-04-17 04:50 26.80560 34.83213 36783 ft 568 kts 115°
2026-04-17 04:51 26.78078 34.90022 36785 ft 568 kts 115°
2026-04-17 04:51 26.75093 34.98210 36790 ft 568 kts 115°
2026-04-17 04:52 26.72112 35.06362 36790 ft 569 kts 115°
2026-04-17 04:52 26.69106 35.14558 36793 ft 569 kts 115°
2026-04-17 04:53 26.66096 35.22755 36793 ft 569 kts 115°
2026-04-17 04:55 26.53985 35.55483 36798 ft 569 kts 116°
2026-04-17 04:55 26.50882 35.63558 36799 ft 569 kts 116°
2026-04-17 04:56 26.47751 35.71688 36801 ft 569 kts 116°
2026-04-17 04:56 26.44629 35.79818 36789 ft 569 kts 116°
2026-04-17 04:57 26.41490 35.87985 36798 ft 574 kts 116°
2026-04-17 04:57 26.38340 35.96174 36799 ft 575 kts 116°
2026-04-17 04:58 26.35200 36.04322 36801 ft 574 kts 116°
2026-04-17 04:58 26.32035 36.12513 36802 ft 574 kts 116°
2026-04-17 04:59 26.28864 36.20703 36793 ft 574 kts 116°
2026-04-17 04:59 26.25709 36.28833 36782 ft 575 kts 116°
2026-04-17 05:00 26.22530 36.37010 36775 ft 575 kts 116°
2026-04-17 05:00 26.19341 36.45196 36774 ft 575 kts 117°
2026-04-17 05:01 26.15807 36.53135 36771 ft 571 kts 122°
2026-04-17 05:01 26.12037 36.60861 36811 ft 570 kts 123°
2026-04-17 05:02 26.08206 36.68591 36808 ft 570 kts 123°
2026-04-17 05:02 26.04370 36.76328 36811 ft 570 kts 123°
2026-04-17 05:03 26.00539 36.84064 36805 ft 570 kts 123°
2026-04-17 05:03 25.96729 36.91753 36814 ft 570 kts 123°
2026-04-17 05:04 25.92895 36.99476 36805 ft 570 kts 123°
2026-04-17 05:04 25.89065 37.07179 36812 ft 569 kts 123°
2026-04-17 05:05 25.85229 37.14880 36809 ft 569 kts 123°
2026-04-17 05:05 25.81387 37.22577 36811 ft 569 kts 123°
2026-04-17 05:06 25.77554 37.30269 36817 ft 569 kts 123°
2026-04-17 05:06 25.73754 37.37906 36797 ft 569 kts 123°
2026-04-17 05:07 25.69913 37.45612 36843 ft 572 kts 123°
2026-04-17 05:07 25.66049 37.53351 36857 ft 574 kts 123°
2026-04-17 05:08 25.62178 37.61089 36855 ft 574 kts 123°
2026-04-17 05:08 25.58303 37.68827 36861 ft 574 kts 123°
2026-04-17 05:09 25.54416 37.76562 36865 ft 574 kts 123°
2026-04-17 05:09 25.50530 37.84284 36873 ft 574 kts 123°
2026-04-17 05:10 25.46643 37.91999 36876 ft 574 kts 123°
2026-04-17 05:10 25.42772 37.99670 36875 ft 574 kts 123°
2026-04-17 05:11 25.38877 38.07376 36873 ft 573 kts 123°
2026-04-17 05:11 25.34982 38.15071 36885 ft 574 kts 123°
2026-04-17 05:12 25.31079 38.22765 36886 ft 574 kts 123°
2026-04-17 05:12 25.27158 38.30483 36892 ft 575 kts 123°
2026-04-17 05:13 25.23243 38.38179 36902 ft 574 kts 123°
2026-04-17 05:13 25.19329 38.45866 36902 ft 574 kts 123°
2026-04-17 05:14 25.15429 38.53504 36910 ft 574 kts 123°
2026-04-17 05:14 25.11489 38.61193 36908 ft 574 kts 123°
2026-04-17 05:15 25.07547 38.68865 36926 ft 576 kts 124°
2026-04-17 05:15 25.03582 38.76560 36944 ft 577 kts 124°
2026-04-17 05:16 24.99645 38.84212 36936 ft 577 kts 124°
2026-04-17 05:16 24.95677 38.91919 36951 ft 578 kts 124°
2026-04-17 05:17 24.91707 38.99619 36966 ft 578 kts 124°
2026-04-17 05:17 24.87721 39.07311 36975 ft 578 kts 124°
2026-04-17 05:18 24.83731 39.14996 36986 ft 578 kts 124°
2026-04-17 05:18 24.79740 39.22682 36988 ft 578 kts 124°
2026-04-17 05:19 24.75747 39.30362 36988 ft 578 kts 124°
2026-04-17 05:19 24.71769 39.37992 36992 ft 578 kts 124°
2026-04-17 05:20 24.67770 39.45653 37003 ft 578 kts 124°
2026-04-17 05:20 24.63764 39.53314 37005 ft 578 kts 124°
2026-04-17 05:21 24.59752 39.60968 37019 ft 577 kts 124°
2026-04-17 05:21 24.55939 39.68744 37014 ft 582 kts 114°
2026-04-17 05:22 24.54718 39.72999 37020 ft 585 kts 102°
2026-04-17 05:22 24.54049 39.77411 37023 ft 585 kts 98°
2026-04-17 05:22 24.53116 39.86311 37024 ft 586 kts 95°
2026-04-17 05:23 24.52338 39.95176 37026 ft 586 kts 95°
2026-04-17 05:23 24.51522 40.04085 37021 ft 586 kts 95°
2026-04-17 05:24 24.50662 40.12994 37035 ft 586 kts 96°
2026-04-17 05:24 24.49784 40.21896 37035 ft 585 kts 96°
2026-04-17 05:25 24.48909 40.30718 37036 ft 585 kts 96°
2026-04-17 05:25 24.48022 40.39625 37030 ft 585 kts 96°
2026-04-17 05:26 24.47134 40.48515 37020 ft 585 kts 96°
2026-04-17 05:26 24.46240 40.57403 37031 ft 585 kts 96°
2026-04-17 05:27 24.45352 40.66222 37035 ft 585 kts 96°
2026-04-17 05:27 24.44446 40.75102 37030 ft 585 kts 96°
2026-04-17 05:28 24.43532 40.83980 37025 ft 585 kts 96°
2026-04-17 05:28 24.42614 40.92851 37031 ft 585 kts 96°
2026-04-17 05:29 24.41693 41.01726 37029 ft 585 kts 96°
2026-04-17 05:29 24.40769 41.10588 37032 ft 584 kts 96°
2026-04-17 05:30 24.39841 41.19448 37026 ft 584 kts 96°
2026-04-17 05:30 24.38907 41.28309 37041 ft 584 kts 96°
2026-04-17 05:31 24.37968 41.37168 37047 ft 584 kts 96°
2026-04-17 05:31 24.37024 41.46024 37048 ft 584 kts 96°
2026-04-17 05:32 24.36079 41.54844 37047 ft 584 kts 96°
2026-04-17 05:32 24.35124 41.63697 37048 ft 584 kts 96°
2026-04-17 05:33 24.34171 41.72495 37046 ft 584 kts 96°
2026-04-17 05:33 24.33144 41.81338 37062 ft 584 kts 101°
2026-04-17 05:34 24.31157 41.89959 37046 ft 583 kts 106°
2026-04-17 05:34 24.28922 41.98498 37049 ft 582 kts 107°
2026-04-17 05:35 24.26640 42.07021 37054 ft 583 kts 107°
2026-04-17 05:35 24.24752 42.14110 37046 ft 583 kts 107°
2026-04-17 05:36 24.22488 42.22648 37049 ft 583 kts 107°
2026-04-17 05:36 24.19862 42.32556 37035 ft 583 kts 107°
2026-04-17 05:37 24.17975 42.39656 37051 ft 583 kts 107°
2026-04-17 05:37 24.15705 42.48171 37047 ft 582 kts 107°
2026-04-17 05:38 24.13431 42.56680 37052 ft 582 kts 107°
2026-04-17 05:38 24.11154 42.65179 37053 ft 582 kts 107°
2026-04-17 05:39 24.08872 42.73678 37059 ft 582 kts 107°
2026-04-17 05:39 24.06582 42.82187 37057 ft 582 kts 107°
2026-04-17 05:40 24.04288 42.90688 37291 ft 582 kts 107°
2026-04-17 05:40 24.03142 42.94928 37553 ft 582 kts 107°
2026-04-17 05:40 24.02003 42.99137 37761 ft 582 kts 107°
2026-04-17 05:41 24.00849 43.03390 37946 ft 583 kts 107°
2026-04-17 05:41 23.99695 43.07641 38183 ft 583 kts 107°
2026-04-17 05:41 23.98534 43.11912 38376 ft 584 kts 107°
2026-04-17 05:41 23.97374 43.16175 38520 ft 586 kts 107°
2026-04-17 05:42 23.96222 43.20404 38708 ft 586 kts 107°
2026-04-17 05:42 23.95057 43.24676 38847 ft 587 kts 107°
2026-04-17 05:42 23.93891 43.28947 39016 ft 587 kts 107°
2026-04-17 05:42 23.92719 43.33235 39065 ft 589 kts 107°
2026-04-17 05:43 23.90368 43.41820 39069 ft 589 kts 107°
2026-04-17 05:43 23.88015 43.50394 39066 ft 588 kts 107°
2026-04-17 05:44 23.85661 43.58950 39056 ft 587 kts 107°
2026-04-17 05:44 23.83300 43.67512 39056 ft 587 kts 107°
2026-04-17 05:45 23.80942 43.76042 39054 ft 587 kts 107°
2026-04-17 05:45 23.78593 43.84521 39053 ft 587 kts 107°
2026-04-17 05:46 23.77083 43.93294 39045 ft 583 kts 94°
2026-04-17 05:46 23.76344 44.02053 39039 ft 583 kts 92°
2026-04-17 05:47 23.75722 44.10887 39045 ft 582 kts 92°
2026-04-17 05:47 23.75092 44.19713 39050 ft 581 kts 92°
2026-04-17 05:48 23.74436 44.28499 39043 ft 580 kts 92°
2026-04-17 05:48 23.73770 44.37208 39045 ft 579 kts 92°
2026-04-17 05:49 23.73095 44.45964 39046 ft 579 kts 92°
2026-04-17 05:49 23.72417 44.54722 39054 ft 579 kts 92°
2026-04-17 05:50 23.71735 44.63478 39050 ft 579 kts 92°
2026-04-17 05:50 23.71047 44.72234 39051 ft 579 kts 92°
2026-04-17 05:51 23.70377 44.80716 39060 ft 579 kts 92°
2026-04-17 05:51 23.69679 44.89489 39054 ft 580 kts 92°
2026-04-17 05:52 23.68979 44.98250 39064 ft 579 kts 93°
2026-04-17 05:52 23.68275 45.06928 39051 ft 578 kts 92°
2026-04-17 05:53 23.67561 45.15670 39061 ft 579 kts 92°
2026-04-17 05:53 23.66844 45.24430 39056 ft 578 kts 93°
2026-04-17 05:54 23.66120 45.33211 39048 ft 577 kts 93°
2026-04-17 05:54 23.65399 45.41873 39062 ft 576 kts 93°
2026-04-17 05:55 23.64672 45.50563 39061 ft 575 kts 93°
2026-04-17 05:55 23.63940 45.59250 39060 ft 576 kts 93°
2026-04-17 05:56 23.63207 45.67945 39055 ft 576 kts 93°
2026-04-17 05:56 23.62463 45.76647 39048 ft 576 kts 93°
2026-04-17 05:57 23.61713 45.85339 39051 ft 575 kts 93°
2026-04-17 05:57 23.60960 45.94018 39049 ft 575 kts 93°
2026-04-17 05:58 23.60204 46.02689 39051 ft 574 kts 94°
2026-04-17 05:59 23.59065 46.15647 39051 ft 574 kts 94°
2026-04-17 05:59 23.58300 46.24310 39043 ft 572 kts 94°
2026-04-17 06:00 23.57530 46.32966 39055 ft 573 kts 94°
2026-04-17 06:00 23.56751 46.41625 39060 ft 574 kts 94°
2026-04-17 06:01 23.55966 46.50298 39057 ft 574 kts 94°
2026-04-17 06:01 23.55183 46.58955 39042 ft 574 kts 94°
2026-04-17 06:02 23.54398 46.67534 39062 ft 575 kts 94°
2026-04-17 06:02 23.53598 46.76228 39045 ft 575 kts 94°
2026-04-17 06:03 23.52794 46.84908 39040 ft 575 kts 94°
2026-04-17 06:03 23.51986 46.93582 39040 ft 575 kts 94°
2026-04-17 06:04 23.51173 47.02262 39043 ft 574 kts 94°
2026-04-17 06:04 23.50363 47.10861 39040 ft 574 kts 94°
2026-04-17 06:05 23.49542 47.19521 39053 ft 575 kts 94°
2026-04-17 06:05 23.48716 47.28185 39041 ft 574 kts 94°
2026-04-17 06:06 23.47886 47.36836 39041 ft 574 kts 94°
2026-04-17 06:06 23.47050 47.45500 39039 ft 573 kts 94°
2026-04-17 06:07 23.46221 47.54068 39041 ft 572 kts 94°
2026-04-17 06:07 23.45381 47.62708 39044 ft 572 kts 95°
2026-04-17 06:08 23.44533 47.71310 39041 ft 571 kts 94°
2026-04-17 06:08 23.43682 47.79919 39058 ft 572 kts 95°
2026-04-17 06:09 23.42828 47.88532 39048 ft 571 kts 95°
2026-04-17 06:09 23.41976 47.97070 39043 ft 571 kts 95°
2026-04-17 06:10 23.41112 48.05677 39046 ft 570 kts 95°
2026-04-17 06:10 23.40246 48.14261 39042 ft 569 kts 95°
2026-04-17 06:11 23.39376 48.22830 39045 ft 569 kts 95°
2026-04-17 06:11 23.38502 48.31393 39042 ft 570 kts 95°
2026-04-17 06:12 23.37765 48.39933 39040 ft 570 kts 90°
2026-04-17 06:12 23.37489 48.48546 39040 ft 568 kts 89°
2026-04-17 06:13 23.37262 48.57119 39037 ft 567 kts 89°
2026-04-17 06:13 23.36954 48.65696 39040 ft 567 kts 90°
2026-04-17 06:14 23.36597 48.74278 39037 ft 565 kts 90°
2026-04-17 06:14 23.36228 48.82827 39034 ft 565 kts 90°
2026-04-17 06:15 23.35857 48.91384 39032 ft 565 kts 90°
2026-04-17 06:15 23.35487 48.99895 39041 ft 566 kts 90°
2026-04-17 06:16 23.34872 49.08458 39033 ft 568 kts 96°
2026-04-17 06:16 23.33733 49.16968 39034 ft 567 kts 97°
2026-04-17 06:17 23.32514 49.25385 39043 ft 566 kts 98°
2026-04-17 06:17 23.31275 49.33850 39033 ft 566 kts 98°
2026-04-17 06:18 23.30048 49.42285 39033 ft 564 kts 98°
2026-04-17 06:18 23.28821 49.50721 39028 ft 566 kts 98°
2026-04-17 06:19 23.27589 49.59180 39035 ft 566 kts 98°
2026-04-17 06:19 23.26352 49.67629 39036 ft 565 kts 98°
2026-04-17 06:20 23.25322 49.74642 39035 ft 565 kts 98°
2026-04-17 06:20 23.24079 49.83070 39034 ft 563 kts 98°
2026-04-17 06:21 23.22632 49.92844 39037 ft 563 kts 98°
2026-04-17 06:21 23.21593 49.99835 39020 ft 562 kts 98°
2026-04-17 06:22 23.20340 50.08234 39036 ft 563 kts 97°
2026-04-17 06:22 23.19082 50.16639 39042 ft 563 kts 98°
2026-04-17 06:23 23.17821 50.25033 39035 ft 561 kts 98°
2026-04-17 06:23 23.16560 50.33390 39037 ft 559 kts 98°
2026-04-17 06:24 23.15296 50.41744 39027 ft 559 kts 98°
2026-04-17 06:24 23.14031 50.50068 39031 ft 557 kts 98°
2026-04-17 06:25 23.12767 50.58363 39022 ft 557 kts 98°
2026-04-17 06:25 23.11495 50.66680 39036 ft 558 kts 98°
2026-04-17 06:26 23.10228 50.74930 39037 ft 555 kts 98°
2026-04-17 06:26 23.08954 50.83193 39031 ft 554 kts 98°
2026-04-17 06:27 23.07677 50.91452 39037 ft 553 kts 98°
2026-04-17 06:27 23.06400 50.99676 39023 ft 552 kts 98°
2026-04-17 06:28 23.05129 51.07838 39030 ft 552 kts 99°
2026-04-17 06:28 23.03840 51.16080 39022 ft 553 kts 98°
2026-04-17 06:29 23.02546 51.24332 39024 ft 554 kts 99°
2026-04-17 06:29 23.01255 51.32534 39027 ft 554 kts 99°
2026-04-17 06:30 22.99956 51.40761 39032 ft 553 kts 99°
2026-04-17 06:30 22.98650 51.48998 39031 ft 552 kts 99°
2026-04-17 06:31 22.97341 51.57228 39027 ft 552 kts 99°
2026-04-17 06:31 22.96031 51.65437 39019 ft 551 kts 99°
2026-04-17 06:32 22.94726 51.73590 39028 ft 551 kts 99°
2026-04-17 06:32 22.93410 51.81779 39033 ft 551 kts 99°
2026-04-17 06:33 22.92091 51.89957 39021 ft 549 kts 99°
2026-04-17 06:33 22.90771 51.98116 39026 ft 549 kts 99°
2026-04-17 06:34 22.89448 52.06271 39033 ft 548 kts 99°
2026-04-17 06:34 22.88132 52.14348 39026 ft 546 kts 99°
2026-04-17 06:35 22.86809 52.22449 39020 ft 546 kts 99°
2026-04-17 06:35 22.85478 52.30565 39022 ft 547 kts 99°
2026-04-17 06:36 22.84144 52.38679 39015 ft 545 kts 99°
2026-04-17 06:36 22.82818 52.46779 39015 ft 545 kts 98°
2026-04-17 06:37 22.82282 52.54904 39011 ft 543 kts 91°
2026-04-17 06:37 22.82050 52.63072 39020 ft 541 kts 90°
2026-04-17 06:38 22.81862 52.71234 39014 ft 540 kts 90°
2026-04-17 06:38 22.81661 52.79392 39021 ft 540 kts 90°
2026-04-17 06:39 22.81447 52.87453 39017 ft 538 kts 90°
2026-04-17 06:39 22.81222 52.95622 39020 ft 538 kts 90°
2026-04-17 06:40 22.80994 53.03731 39008 ft 538 kts 90°
2026-04-17 06:40 22.80761 53.11887 39010 ft 537 kts 90°
2026-04-17 06:41 22.80527 53.19970 39012 ft 536 kts 90°
2026-04-17 06:41 22.80288 53.28056 39011 ft 536 kts 90°
2026-04-17 06:42 22.80047 53.36055 39007 ft 533 kts 90°
2026-04-17 06:42 22.79803 53.44078 39007 ft 532 kts 90°
2026-04-17 06:43 22.79554 53.52102 39005 ft 532 kts 90°
2026-04-17 06:43 22.79301 53.60137 39007 ft 532 kts 90°
2026-04-17 06:44 22.79043 53.68170 39007 ft 532 kts 90°
2026-04-17 06:44 22.78784 53.76152 39010 ft 532 kts 90°
2026-04-17 06:45 22.78520 53.84153 39010 ft 530 kts 90°
2026-04-17 06:45 22.78253 53.92130 39003 ft 530 kts 90°
2026-04-17 06:46 22.78323 54.00113 39017 ft 528 kts 79°
2026-04-17 06:46 22.79666 54.07891 39007 ft 523 kts 75°
2026-04-17 06:47 22.81235 54.15589 39007 ft 522 kts 74°
2026-04-17 06:47 22.82819 54.23221 39007 ft 522 kts 74°
2026-04-17 06:48 22.84390 54.30904 39007 ft 521 kts 75°
2026-04-17 06:48 22.85941 54.38574 39006 ft 520 kts 75°
2026-04-17 06:49 22.87485 54.46249 39003 ft 520 kts 75°
2026-04-17 06:49 22.89025 54.53919 39008 ft 519 kts 75°
2026-04-17 06:50 22.90548 54.61519 39005 ft 519 kts 75°
2026-04-17 06:50 22.92076 54.69163 39004 ft 519 kts 75°
2026-04-17 06:51 22.93601 54.76814 39009 ft 519 kts 75°
2026-04-17 06:51 22.95121 54.84455 39002 ft 518 kts 75°
2026-04-17 06:52 22.96636 54.92102 39002 ft 517 kts 75°
2026-04-17 06:52 22.98147 54.99742 39002 ft 517 kts 75°
2026-04-17 06:53 22.99653 55.07373 39000 ft 517 kts 76°
2026-04-17 06:53 23.01526 55.14875 38999 ft 513 kts 65°
2026-04-17 06:54 23.05174 55.21359 39001 ft 503 kts 45°
2026-04-17 06:54 23.07676 55.23976 39002 ft 497 kts 34°
2026-04-17 06:54 23.10530 55.26065 39000 ft 491 kts 24°
2026-04-17 06:55 23.16884 55.28508 39012 ft 485 kts
2026-04-17 06:55 23.23494 55.30321 39002 ft 491 kts 11°
2026-04-17 06:56 23.30120 55.32188 38716 ft 489 kts 11°
2026-04-17 06:56 23.33408 55.33136 37888 ft 490 kts 12°
2026-04-17 06:56 23.36712 55.34100 36977 ft 493 kts 12°
2026-04-17 06:56 23.40026 55.35075 36333 ft 493 kts 12°
2026-04-17 06:57 23.43350 55.36058 36063 ft 497 kts 12°
2026-04-17 06:57 23.50049 55.38044 36009 ft 500 kts 12°
2026-04-17 06:58 23.56759 55.40039 36001 ft 499 kts 12°
2026-04-17 06:58 23.63466 55.42023 35785 ft 499 kts 12°
2026-04-17 06:58 23.66823 55.43016 35613 ft 499 kts 12°
2026-04-17 06:59 23.70179 55.44009 35444 ft 500 kts 12°
2026-04-17 06:59 23.73495 55.44992 35279 ft 501 kts 12°
2026-04-17 06:59 23.76861 55.45989 35080 ft 501 kts 12°
2026-04-17 06:59 23.80228 55.46989 34834 ft 502 kts 12°
2026-04-17 07:00 23.83602 55.47992 34574 ft 503 kts 12°
2026-04-17 07:00 23.86983 55.48999 34314 ft 503 kts 13°
2026-04-17 07:00 23.90361 55.50007 34061 ft 504 kts 13°
2026-04-17 07:00 23.93749 55.51013 33780 ft 505 kts 13°
2026-04-17 07:01 23.97138 55.52032 33481 ft 506 kts 14°
2026-04-17 07:01 24.00409 55.53472 33197 ft 509 kts 26°
2026-04-17 07:01 24.02416 55.54823 33012 ft 512 kts 34°
2026-04-17 07:01 24.05252 55.57279 32564 ft 513 kts 38°
2026-04-17 07:02 24.07959 55.59848 31924 ft 515 kts 39°
2026-04-17 07:02 24.10613 55.62485 31274 ft 516 kts 40°
2026-04-17 07:02 24.13260 55.65161 30617 ft 519 kts 40°
2026-04-17 07:02 24.15911 55.67846 29885 ft 514 kts 40°
2026-04-17 07:03 24.18525 55.70483 29081 ft 510 kts 40°
2026-04-17 07:03 24.21145 55.73109 28286 ft 506 kts 40°
2026-04-17 07:03 24.23737 55.75694 27530 ft 501 kts 40°
2026-04-17 07:03 24.26271 55.78217 26791 ft 496 kts 40°
2026-04-17 07:04 24.28819 55.80751 26060 ft 491 kts 40°
2026-04-17 07:04 24.31347 55.83265 25364 ft 486 kts 40°
2026-04-17 07:04 24.33849 55.85754 24670 ft 482 kts 40°
2026-04-17 07:04 24.36315 55.88209 24006 ft 477 kts 40°
2026-04-17 07:05 24.38764 55.90647 23279 ft 473 kts 40°
2026-04-17 07:05 24.41186 55.93057 22518 ft 468 kts 40°
2026-04-17 07:05 24.43587 55.95453 21748 ft 463 kts 40°
2026-04-17 07:05 24.45960 55.97823 21005 ft 459 kts 40°
2026-04-17 07:06 24.48308 56.00168 20294 ft 454 kts 40°
2026-04-17 07:06 24.50632 56.02491 19609 ft 450 kts 40°
2026-04-17 07:06 24.52940 56.04798 18957 ft 446 kts 39°
2026-04-17 07:06 24.55226 56.07085 18290 ft 442 kts 39°
2026-04-17 07:07 24.57496 56.09351 17537 ft 437 kts 38°
2026-04-17 07:07 24.59940 56.11269 16798 ft 428 kts 25°
2026-04-17 07:07 24.62663 56.12472 16145 ft 418 kts 13°
2026-04-17 07:07 24.65437 56.13246 15542 ft 402 kts
2026-04-17 07:08 24.68104 56.13811 14961 ft 379 kts
2026-04-17 07:08 24.70648 56.14265 14399 ft 360 kts
2026-04-17 07:08 24.73068 56.14667 13865 ft 344 kts
2026-04-17 07:08 24.75383 56.15047 13364 ft 328 kts
2026-04-17 07:09 24.77611 56.15336 13051 ft 316 kts 358°
2026-04-17 07:09 24.79726 56.15147 13007 ft 295 kts 344°
2026-04-17 07:09 24.81613 56.14491 13005 ft 277 kts 334°
2026-04-17 07:09 24.83379 56.13682 13004 ft 274 kts 333°
2026-04-17 07:10 24.85106 56.12850 12994 ft 274 kts 332°
2026-04-17 07:10 24.86852 56.12001 12991 ft 274 kts 332°
2026-04-17 07:10 24.88590 56.11150 12988 ft 273 kts 332°
2026-04-17 07:10 24.90327 56.10297 12993 ft 274 kts 332°
2026-04-17 07:11 24.92054 56.09450 12810 ft 268 kts 332°
2026-04-17 07:11 24.93753 56.08613 12528 ft 269 kts 332°
2026-04-17 07:11 24.95483 56.07759 12318 ft 273 kts 332°
2026-04-17 07:11 24.97165 56.06807 12111 ft 270 kts 322°
2026-04-17 07:12 24.98545 56.05432 11920 ft 266 kts 310°
2026-04-17 07:12 24.99783 56.03922 11728 ft 265 kts 309°
2026-04-17 07:12 25.01006 56.02405 11546 ft 264 kts 309°
2026-04-17 07:12 25.02230 56.00894 11332 ft 263 kts 309°
2026-04-17 07:13 25.03449 55.99395 11159 ft 262 kts 310°
2026-04-17 07:13 25.04666 55.97898 11012 ft 261 kts 310°
2026-04-17 07:13 25.05868 55.96425 11006 ft 261 kts 310°
2026-04-17 07:13 25.07086 55.94938 11006 ft 261 kts 310°
2026-04-17 07:14 25.08304 55.93444 11002 ft 261 kts 310°
2026-04-17 07:14 25.09524 55.91945 10999 ft 261 kts 310°
2026-04-17 07:14 25.10737 55.90455 10943 ft 261 kts 310°
2026-04-17 07:14 25.11951 55.88965 10837 ft 261 kts 310°
2026-04-17 07:15 25.13162 55.87476 10724 ft 260 kts 310°
2026-04-17 07:15 25.14372 55.85990 10604 ft 260 kts 310°
2026-04-17 07:15 25.15548 55.84476 10487 ft 259 kts 305°
2026-04-17 07:15 25.16551 55.82827 10362 ft 259 kts 301°
2026-04-17 07:16 25.17496 55.81137 10259 ft 258 kts 300°
2026-04-17 07:16 25.18430 55.79449 10140 ft 257 kts 300°
2026-04-17 07:16 25.19174 55.77692 10023 ft 257 kts 287°
2026-04-17 07:16 25.19582 55.75781 9872 ft 255 kts 282°
2026-04-17 07:17 25.19907 55.73859 9684 ft 255 kts 281°
2026-04-17 07:17 25.20227 55.71935 9514 ft 254 kts 281°
2026-04-17 07:17 25.20877 55.68111 9157 ft 252 kts 281°
2026-04-17 07:18 25.21202 55.66214 8979 ft 251 kts 281°
2026-04-17 07:18 25.21529 55.64318 8809 ft 250 kts 282°
2026-04-17 07:18 25.21853 55.62432 8632 ft 250 kts 282°
2026-04-17 07:18 25.22179 55.60546 8470 ft 248 kts 282°
2026-04-17 07:19 25.22493 55.58717 8310 ft 237 kts 282°
2026-04-17 07:19 25.22793 55.56971 8184 ft 226 kts 282°
2026-04-17 07:19 25.23154 55.55294 8046 ft 224 kts 290°
2026-04-17 07:19 25.23845 55.53752 7905 ft 223 kts 300°
2026-04-17 07:20 25.24655 55.52288 7758 ft 223 kts 301°
2026-04-17 07:20 25.25474 55.50832 7604 ft 222 kts 302°
2026-04-17 07:20 25.26274 55.49403 7465 ft 221 kts 302°
2026-04-17 07:20 25.27089 55.47942 7328 ft 220 kts 301°
2026-04-17 07:21 25.27880 55.46523 7204 ft 219 kts 301°
2026-04-17 07:21 25.28678 55.45085 7110 ft 219 kts 301°
2026-04-17 07:21 25.29474 55.43652 6986 ft 219 kts 301°
2026-04-17 07:21 25.30275 55.42221 6867 ft 219 kts 301°
2026-04-17 07:22 25.31074 55.40787 6760 ft 219 kts 301°
2026-04-17 07:22 25.31873 55.39352 6630 ft 219 kts 301°
2026-04-17 07:22 25.32671 55.37922 6522 ft 218 kts 301°
2026-04-17 07:22 25.33467 55.36492 6348 ft 217 kts 302°
2026-04-17 07:23 25.34256 55.35075 6158 ft 216 kts 301°
2026-04-17 07:23 25.35046 55.33657 6048 ft 216 kts 301°
2026-04-17 07:23 25.35838 55.32242 5953 ft 216 kts 301°
2026-04-17 07:23 25.36625 55.30825 5892 ft 216 kts 301°
2026-04-17 07:24 25.37408 55.29409 5810 ft 216 kts 301°
2026-04-17 07:24 25.38189 55.27996 5753 ft 215 kts 301°
2026-04-17 07:24 25.38969 55.26588 5669 ft 214 kts 301°
2026-04-17 07:24 25.39743 55.25201 5585 ft 213 kts 301°
2026-04-17 07:25 25.40528 55.23782 5517 ft 213 kts 301°
2026-04-17 07:25 25.41299 55.22388 5444 ft 212 kts 301°
2026-04-17 07:25 25.42062 55.21010 5375 ft 213 kts 301°
2026-04-17 07:25 25.42838 55.19611 5284 ft 214 kts 301°
2026-04-17 07:26 25.43621 55.18191 5233 ft 213 kts 301°
2026-04-17 07:26 25.44383 55.16807 5159 ft 213 kts 301°
2026-04-17 07:26 25.45153 55.15411 5090 ft 213 kts 301°
2026-04-17 07:26 25.45926 55.14015 5031 ft 213 kts 301°
2026-04-17 07:27 25.46701 55.12622 4994 ft 212 kts 301°
2026-04-17 07:27 25.47474 55.11229 4990 ft 212 kts 301°
2026-04-17 07:27 25.48229 55.09866 4988 ft 199 kts 301°
2026-04-17 07:27 25.48925 55.08610 4989 ft 186 kts 301°
2026-04-17 07:28 25.49605 55.07390 4995 ft 186 kts 301°
2026-04-17 07:28 25.50281 55.06169 5021 ft 185 kts 301°
2026-04-17 07:28 25.50951 55.04954 4893 ft 184 kts 301°
2026-04-17 07:28 25.51579 55.03712 4740 ft 185 kts 293°
2026-04-17 07:29 25.51770 55.02311 4596 ft 187 kts 264°
2026-04-17 07:29 25.51208 55.01012 4513 ft 194 kts 231°
2026-04-17 07:29 25.50118 55.00109 4479 ft 198 kts 216°
2026-04-17 07:29 25.48931 54.99358 4422 ft 200 kts 213°
2026-04-17 07:30 25.47570 54.98956 4345 ft 210 kts 184°
2026-04-17 07:30 25.46194 54.99512 4261 ft 219 kts 141°
2026-04-17 07:30 25.45259 55.00841 4230 ft 220 kts 122°
2026-04-17 07:30 25.44486 55.02306 4175 ft 220 kts 121°
2026-04-17 07:31 25.43718 55.03765 4135 ft 219 kts 122°
2026-04-17 07:31 25.42944 55.05213 4083 ft 218 kts 122°
2026-04-17 07:31 25.42160 55.06652 4020 ft 219 kts 122°
2026-04-17 07:31 25.41364 55.08098 3975 ft 220 kts 122°
2026-04-17 07:32 25.40564 55.09545 3916 ft 220 kts 122°
2026-04-17 07:32 25.39766 55.10985 3880 ft 219 kts 122°
2026-04-17 07:32 25.38937 55.12397 3852 ft 218 kts 125°
2026-04-17 07:32 25.38078 55.13781 3808 ft 218 kts 125°
2026-04-17 07:33 25.37218 55.15168 3747 ft 219 kts 125°
2026-04-17 07:33 25.36364 55.16553 3623 ft 220 kts 126°
2026-04-17 07:33 25.35507 55.17950 3478 ft 219 kts 125°
2026-04-17 07:33 25.34684 55.19372 3339 ft 219 kts 122°
2026-04-17 07:34 25.33901 55.20809 3199 ft 217 kts 121°
2026-04-17 07:34 25.33125 55.22235 3054 ft 216 kts 121°
2026-04-17 07:34 25.32327 55.23642 2896 ft 215 kts 122°
2026-04-17 07:34 25.31561 55.25052 2716 ft 216 kts 123°
2026-04-17 07:35 25.30762 55.26520 2275 ft 231 kts 120°
2026-04-17 07:35 25.29967 55.28030 1720 ft 223 kts 123°
2026-04-17 07:35 25.29175 55.29466 1317 ft 212 kts 126°
2026-04-17 07:35 25.28402 55.30799 1006 ft 199 kts 126°
2026-04-17 07:36 25.27688 55.32051 761 ft 186 kts 123°
2026-04-17 07:36 25.27046 55.33274 565 ft 180 kts 124°
2026-04-17 07:36 25.26403 55.34425 365 ft 173 kts 125°
2026-04-17 07:36 25.25785 55.35534 182 ft 165 kts 125°
2026-04-17 07:37 25.25209 55.36579 51 ft 152 kts 124°
2026-04-17 07:37 25.24689 55.37510 30 ft 128 kts 121°
2026-04-17 07:37 25.24366 55.38086 32 ft 45 kts 121°
2026-04-17 07:37 25.24322 55.38166 33 ft 2 kts 121°
2026-04-17 07:38 25.24294 55.38217 33 ft 16 kts 121°
2026-04-17 07:38 25.24219 55.38342 32 ft 21 kts 134°
2026-04-17 07:38 25.24092 55.38441 31 ft 24 kts 149°
2026-04-17 07:38 25.24015 55.38482 29 ft 10 kts 169°
2026-04-17 07:39 25.23972 55.38436 27 ft 10 kts 268°
2026-04-17 07:39 25.24002 55.38366 28 ft 11 kts 300°
2026-04-17 07:39 25.24046 55.38287 28 ft 13 kts 302°
2026-04-17 07:39 25.24098 55.38194 28 ft 15 kts 301°
2026-04-17 07:40 25.24138 55.38123 28 ft 17 kts 302°
2026-04-17 07:40 25.24205 55.38005 28 ft 19 kts 302°
2026-04-17 07:40 25.24308 55.37822 27 ft 23 kts 303°
2026-04-17 07:40 25.24334 55.37777 27 ft 23 kts 302°
2026-04-17 07:41 25.24363 55.37727 27 ft 24 kts 302°
2026-04-17 07:41 25.24454 55.37563 27 ft 26 kts 301°
2026-04-17 07:41 25.24548 55.37396 27 ft 21 kts 302°
2026-04-17 07:41 25.24627 55.37256 27 ft 22 kts 302°
2026-04-17 07:42 25.24710 55.37108 28 ft 22 kts 302°
2026-04-17 07:42 25.24796 55.36957 28 ft 23 kts 302°
2026-04-17 07:42 25.24859 55.36816 28 ft 21 kts 285°
2026-04-17 07:42 25.24897 55.36660 27 ft 22 kts 297°
2026-04-17 07:43 25.24979 55.36509 27 ft 24 kts 302°
2026-04-17 07:43 25.25071 55.36347 27 ft 26 kts 302°
2026-04-17 07:43 25.25169 55.36172 27 ft 28 kts 301°
2026-04-17 07:43 25.25273 55.35989 27 ft 29 kts 302°
2026-04-17 07:44 25.25382 55.35795 27 ft 31 kts 302°
2026-04-17 07:44 25.25497 55.35590 27 ft 32 kts 302°
2026-04-17 07:44 25.25618 55.35375 27 ft 33 kts 302°
2026-04-17 07:44 25.25743 55.35153 27 ft 35 kts 302°
2026-04-17 07:45 25.25822 55.35005 26 ft 3 kts 301°
2026-04-17 07:45 25.25839 55.34974 27 ft 6 kts 300°
2026-04-17 07:45 25.25860 55.34919 27 ft 9 kts 285°
2026-04-17 07:45 25.25861 55.34838 27 ft 12 kts 268°
2026-04-17 07:46 25.25862 55.34790 27 ft 1 kts 274°
2026-04-17 07:46 25.25861 55.34768 27 ft 4 kts 263°
2026-04-17 07:46 25.25842 55.34737 27 ft 6 kts 225°
2026-04-17 07:46 25.25807 55.34713 27 ft 2 kts 210°
2026-04-17 07:47 25.25787 55.34701 27 ft 5 kts 210°
2026-04-17 07:47 25.25779 55.34695 28 ft 0 kts 210°